Terminal Aerodrome Forecast
Issued by NWS Wilmington, OH

Current Version | Previous Version | Text Only | Print | Product List | Glossary Off
Versions: 1 2 3 4 5 6 7 8 9 10 11 12 13 14 15 16 17 18 19 20

000
FTUS41 KILN 050335 AAA
TAFCMH
TAF AMD
KCMH 050335Z 0504/0524 20010KT 5SM BR OVC006
      TEMPO 0504/0507 SCT006 OVC012
     FM050700 28011G16KT P6SM OVC012
     FM051400 29006KT P6SM BKN011
     FM051800 VRB04KT P6SM SCT015 BKN250=

USA.gov is the U.S. government's official web portal to all federal, state and local government web resources and services.